Time;durP1;ratioP1;P1;durP2;ratioP2;P2;SDS_P1;SDS_P2;PMS_P1;PMS_P2;Temp;Humidity;BMP_temperature;BMP_pressure;BME280_temperature;BME280_humidity;BME280_pressure;Samples;Min_cycle;Max_cycle;Signal;HPM_P1;HPM_P2
2022/03/08 00:01:07;;;;;;;29.02;17.52;;;-2.40;73.90;;;;;;6308852;22;20048;-63
2022/03/08 00:03:33;;;;;;;27.38;17.17;;;-2.30;73.60;;;;;;6204876;22;20002;-66
2022/03/08 00:05:59;;;;;;;26.42;17.65;;;-2.30;73.50;;;;;;6308684;22;20019;-65
2022/03/08 00:08:25;;;;;;;27.08;16.77;;;-2.30;73.30;;;;;;6307797;22;19995;-63
2022/03/08 00:10:51;;;;;;;24.70;16.60;;;-2.30;72.90;;;;;;6309673;22;20007;-65
2022/03/08 00:13:17;;;;;;;26.70;16.05;;;-2.20;72.60;;;;;;6307720;22;20061;-65
2022/03/08 00:15:43;;;;;;;30.80;17.63;;;-2.30;72.50;;;;;;6308793;22;19999;-63
2022/03/08 00:18:09;;;;;;;24.80;16.23;;;-2.20;72.40;;;;;;6307167;22;20065;-65
2022/03/08 00:20:35;;;;;;;27.63;16.75;;;-2.20;72.20;;;;;;6306517;22;20003;-65
2022/03/08 00:23:01;;;;;;;26.73;16.63;;;-2.20;72.10;;;;;;6309258;22;20242;-65
2022/03/08 00:25:27;;;;;;;25.27;16.80;;;-2.30;72.30;;;;;;6309714;22;20068;-66
2022/03/08 00:27:53;;;;;;;23.75;15.50;;;-2.40;72.50;;;;;;6310935;22;20356;-66
2022/03/08 00:30:24;;;;;;;28.40;17.75;;;-2.40;72.50;;;;;;6310615;22;20357;-64
2022/03/08 00:32:51;;;;;;;26.80;17.15;;;-2.30;72.20;;;;;;6310501;22;20074;-66
2022/03/08 00:35:20;;;;;;;27.42;16.55;;;-2.30;72.10;;;;;;6310745;22;20000;-65
2022/03/08 00:37:50;;;;;;;28.65;17.13;;;-2.40;72.20;;;;;;6309732;22;20002;-65
2022/03/08 00:40:18;;;;;;;25.08;16.23;;;-2.40;72.30;;;;;;6308977;22;20074;-64
2022/03/08 00:42:44;;;;;;;24.42;15.60;;;-2.40;72.30;;;;;;6312220;22;20003;-66
2022/03/08 00:45:10;;;;;;;25.13;16.05;;;-2.30;72.00;;;;;;6311615;22;20022;-65
2022/03/08 00:47:39;;;;;;;25.40;16.50;;;-2.30;71.90;;;;;;6311472;22;20087;-65
2022/03/08 00:50:09;;;;;;;25.17;15.85;;;-2.30;72.00;;;;;;6311637;22;19995;-65
2022/03/08 00:52:35;;;;;;;26.38;16.25;;;-2.40;72.10;;;;;;6311739;22;20052;-65
2022/03/08 00:55:01;;;;;;;26.70;16.38;;;-2.30;72.00;;;;;;6310425;22;20356;-65
2022/03/08 00:57:27;;;;;;;24.10;14.70;;;-2.40;72.00;;;;;;6311323;22;20086;-65
2022/03/08 00:59:55;;;;;;;24.10;15.55;;;-2.30;71.80;;;;;;6311361;22;20034;-65
2022/03/08 01:02:21;;;;;;;24.33;15.43;;;-2.30;71.60;;;;;;6311230;22;20002;-65
2022/03/08 01:04:46;;;;;;;23.75;14.07;;;-2.20;71.50;;;;;;6310771;22;20003;-64
2022/03/08 01:07:14;;;;;;;22.88;13.27;;;-2.20;71.30;;;;;;6311292;22;20021;-65
2022/03/08 01:09:39;;;;;;;22.40;13.30;;;-2.20;71.20;;;;;;6309989;22;19999;-63
2022/03/08 01:12:06;;;;;;;18.50;12.32;;;-2.10;70.80;;;;;;6311385;22;20005;-65
2022/03/08 01:14:31;;;;;;;20.45;13.02;;;-2.00;70.50;;;;;;6311704;22;20078;-66
2022/03/08 01:16:57;;;;;;;23.90;12.52;;;-2.00;70.40;;;;;;6311506;22;20290;-65
2022/03/08 01:19:23;;;;;;;18.73;12.00;;;-1.90;70.10;;;;;;6311287;22;20000;-64
2022/03/08 01:21:49;;;;;;;17.58;11.65;;;-1.90;70.10;;;;;;6311977;22;20033;-64
2022/03/08 01:24:15;;;;;;;18.88;12.77;;;-1.90;69.70;;;;;;6309752;22;20003;-63
2022/03/08 01:26:41;;;;;;;19.00;12.48;;;-1.90;69.90;;;;;;6311376;22;20435;-64
2022/03/08 01:29:09;;;;;;;19.42;11.32;;;-1.90;69.90;;;;;;6311227;22;20264;-65
2022/03/08 01:31:35;;;;;;;19.77;11.73;;;-1.90;69.90;;;;;;6311215;22;20029;-64
2022/03/08 01:34:01;;;;;;;18.80;11.18;;;-2.00;70.00;;;;;;6310374;22;20007;-65
2022/03/08 01:36:27;;;;;;;18.15;11.77;;;-1.90;69.70;;;;;;6310781;22;20000;-65
2022/03/08 01:38:53;;;;;;;19.42;11.18;;;-1.90;69.60;;;;;;6309441;22;20010;-63
2022/03/08 01:41:19;;;;;;;18.02;10.75;;;-1.90;69.50;;;;;;6310641;22;20353;-64
2022/03/08 01:43:45;;;;;;;18.88;11.18;;;-2.00;69.80;;;;;;6311054;22;19998;-64
2022/03/08 01:46:12;;;;;;;19.42;11.60;;;-2.00;69.90;;;;;;6311101;22;20211;-62
2022/03/08 01:48:38;;;;;;;18.48;11.43;;;-2.00;69.90;;;;;;6310453;22;20736;-64
2022/03/08 01:51:05;;;;;;;17.52;10.85;;;-2.00;69.90;;;;;;6310449;22;20310;-65
2022/03/08 01:53:32;;;;;;;17.67;11.20;;;-2.00;69.90;;;;;;6309636;22;19999;-65
2022/03/08 01:55:58;;;;;;;17.67;10.38;;;-2.00;69.80;;;;;;6311241;22;19999;-62
2022/03/08 01:58:24;;;;;;;18.13;10.95;;;-2.10;69.90;;;;;;6311323;22;19999;-65
2022/03/08 02:00:50;;;;;;;19.20;11.32;;;-2.20;70.20;;;;;;6310688;22;20030;-63
2022/03/08 02:03:15;;;;;;;15.80;10.35;;;-2.00;69.90;;;;;;6310561;22;20003;-64
2022/03/08 02:05:41;;;;;;;17.98;10.02;;;-1.90;69.40;;;;;;6309864;22;20280;-64
2022/03/08 02:08:07;;;;;;;17.30;10.15;;;-1.80;68.80;;;;;;6310741;22;20037;-63
2022/03/08 02:10:36;;;;;;;16.88;10.25;;;-1.70;68.70;;;;;;6309529;22;20326;-64
2022/03/08 02:13:01;;;;;;;20.13;11.98;;;-1.70;68.50;;;;;;6310255;22;20309;-64
2022/03/08 02:15:36;;;;;;;15.90;10.38;;;-1.70;68.40;;;;;;6310670;22;20029;-62
2022/03/08 02:18:02;;;;;;;17.88;10.60;;;-1.80;68.50;;;;;;6310243;22;20003;-65
2022/03/08 02:20:29;;;;;;;18.90;10.57;;;-1.70;68.30;;;;;;6310356;22;20003;-64
2022/03/08 02:22:55;;;;;;;16.42;9.93;;;-1.70;68.30;;;;;;6310178;22;20000;-65
2022/03/08 02:25:22;;;;;;;16.35;10.25;;;-1.70;68.30;;;;;;6307695;22;20010;-65
2022/03/08 02:27:53;;;;;;;15.85;10.60;;;-1.80;68.40;;;;;;6310610;22;20075;-63
2022/03/08 02:30:21;;;;;;;16.50;10.52;;;-1.80;68.40;;;;;;6310131;22;19999;-64
2022/03/08 02:32:47;;;;;;;15.85;10.32;;;-1.80;68.40;;;;;;6310375;22;20070;-63
2022/03/08 02:35:16;;;;;;;16.10;10.23;;;-1.90;68.50;;;;;;6310059;22;20030;-64
2022/03/08 02:37:48;;;;;;;17.10;10.95;;;-1.90;68.50;;;;;;6310559;22;20010;-64
2022/03/08 02:40:16;;;;;;;20.38;10.90;;;-2.00;68.70;;;;;;6308760;22;19995;-64
2022/03/08 02:42:43;;;;;;;18.88;10.27;;;-2.00;68.70;;;;;;6310355;22;20053;-62
2022/03/08 02:45:10;;;;;;;18.35;10.10;;;-2.10;69.00;;;;;;6309514;22;19995;-64
2022/03/08 02:47:36;;;;;;;15.68;9.30;;;-2.10;69.10;;;;;;6310224;22;20041;-62
2022/03/08 02:50:03;;;;;;;16.98;9.80;;;-2.10;69.20;;;;;;6308556;22;20007;-63
2022/03/08 02:52:33;;;;;;;15.43;10.05;;;-2.00;68.90;;;;;;6310221;22;20003;-62
2022/03/08 02:54:58;;;;;;;13.55;8.95;;;-2.00;68.80;;;;;;6309237;22;20015;-64
2022/03/08 02:57:24;;;;;;;19.20;9.90;;;-2.00;68.90;;;;;;6309705;22;20007;-62
2022/03/08 02:59:50;;;;;;;15.48;9.38;;;-2.00;68.80;;;;;;6307700;22;20101;-65
2022/03/08 03:02:16;;;;;;;14.32;9.07;;;-1.90;68.70;;;;;;6307720;22;20003;-64
2022/03/08 03:04:45;;;;;;;13.52;8.43;;;-1.90;68.60;;;;;;6307892;22;20000;-64
2022/03/08 03:07:12;;;;;;;13.88;9.05;;;-1.90;68.50;;;;;;6307631;22;20680;-64
2022/03/08 03:09:37;;;;;;;14.15;8.38;;;-1.90;68.40;;;;;;6305898;22;20078;-64
2022/03/08 03:12:07;;;;;;;15.68;8.45;;;-1.90;68.60;;;;;;6308145;22;20033;-64
2022/03/08 03:14:32;;;;;;;13.20;9.13;;;-1.90;68.50;;;;;;6307668;22;20111;-63
2022/03/08 03:16:58;;;;;;;15.68;8.25;;;-1.90;68.50;;;;;;6308763;22;20423;-64
2022/03/08 03:19:26;;;;;;;13.70;8.93;;;-1.80;68.30;;;;;;6308770;22;20011;-65
2022/03/08 03:21:52;;;;;;;14.40;8.60;;;-1.80;68.40;;;;;;6308504;22;20007;-64
2022/03/08 03:24:18;;;;;;;15.02;9.27;;;-1.90;68.70;;;;;;6307682;22;20027;-64
2022/03/08 03:26:43;;;;;;;14.35;9.25;;;-2.00;68.80;;;;;;6310495;22;19996;-65
2022/03/08 03:29:09;;;;;;;14.13;8.45;;;-2.00;68.90;;;;;;6310230;22;20357;-63
2022/03/08 03:31:35;;;;;;;13.05;8.05;;;-2.00;69.00;;;;;;6310624;22;20311;-64
2022/03/08 03:34:01;;;;;;;12.10;8.05;;;-2.00;69.10;;;;;;6309669;22;20094;-63
2022/03/08 03:36:26;;;;;;;14.63;8.35;;;-1.90;69.10;;;;;;6309657;22;20264;-64
2022/03/08 03:38:53;;;;;;;12.27;8.23;;;-2.00;69.30;;;;;;6307418;22;20007;-63
2022/03/08 03:41:19;;;;;;;13.23;8.02;;;-2.00;69.40;;;;;;6309968;22;20083;-64
2022/03/08 03:43:44;;;;;;;13.88;8.57;;;-2.00;69.40;;;;;;6309612;22;20003;-65
2022/03/08 03:46:10;;;;;;;13.65;8.57;;;-2.10;69.70;;;;;;6309726;22;20425;-64
2022/03/08 03:48:36;;;;;;;16.08;9.55;;;-2.10;69.90;;;;;;6310110;22;20257;-63
2022/03/08 03:51:02;;;;;;;11.60;7.35;;;-2.10;69.90;;;;;;6309586;22;20007;-63
2022/03/08 03:53:27;;;;;;;14.05;8.15;;;-2.10;69.90;;;;;;6307565;22;20003;-62
2022/03/08 03:55:53;;;;;;;11.15;7.20;;;-2.10;70.00;;;;;;6308412;22;20125;-63
2022/03/08 03:58:19;;;;;;;16.42;9.85;;;-2.10;70.10;;;;;;6309714;22;20003;-64
2022/03/08 04:00:44;;;;;;;68.60;30.77;;;-2.10;70.20;;;;;;6311720;22;20467;-63
2022/03/08 04:03:10;;;;;;;34.17;16.35;;;-2.10;70.30;;;;;;6310595;22;19999;-64
2022/03/08 04:05:36;;;;;;;57.38;24.55;;;-2.20;70.50;;;;;;6311542;22;20015;-62
2022/03/08 04:08:02;;;;;;;24.08;12.75;;;-2.20;70.70;;;;;;6311303;22;20003;-64
2022/03/08 04:10:27;;;;;;;27.42;15.45;;;-2.30;70.90;;;;;;6310529;22;20082;-64
2022/03/08 04:12:53;;;;;;;14.30;9.60;;;-2.40;71.10;;;;;;6312188;22;20003;-64
2022/03/08 04:15:18;;;;;;;12.90;8.73;;;-2.40;71.40;;;;;;6312392;22;19995;-64
2022/03/08 04:17:44;;;;;;;12.07;7.95;;;-2.50;71.50;;;;;;6311293;22;19999;-63
2022/03/08 04:20:10;;;;;;;13.63;8.82;;;-2.60;72.00;;;;;;6311766;22;20026;-63
2022/03/08 04:22:40;;;;;;;14.10;8.20;;;-2.60;72.10;;;;;;6312335;22;20307;-65
2022/03/08 04:25:06;;;;;;;14.25;8.52;;;-2.70;72.30;;;;;;6310251;22;20046;-64
2022/03/08 04:27:32;;;;;;;15.02;8.73;;;-2.70;72.40;;;;;;6311938;22;20307;-63
2022/03/08 04:29:58;;;;;;;12.15;7.80;;;-2.80;72.60;;;;;;6311199;22;19999;-64
2022/03/08 04:32:24;;;;;;;12.63;8.50;;;-2.80;72.90;;;;;;6311980;22;20117;-63
2022/03/08 04:34:49;;;;;;;14.98;8.70;;;-3.00;73.20;;;;;;6311284;22;19996;-64
2022/03/08 04:37:15;;;;;;;11.10;7.97;;;-3.10;73.60;;;;;;6311434;22;20010;-64
2022/03/08 04:39:41;;;;;;;13.43;8.57;;;-3.20;74.00;;;;;;6309313;22;20088;-64
2022/03/08 04:42:07;;;;;;;15.80;8.75;;;-3.30;74.40;;;;;;6311902;22;20007;-64
2022/03/08 04:44:32;;;;;;;13.98;8.95;;;-3.20;74.30;;;;;;6311585;22;19999;-64
2022/03/08 04:46:58;;;;;;;13.82;7.93;;;-3.20;74.20;;;;;;6311774;22;20269;-64
2022/03/08 04:49:25;;;;;;;21.50;13.23;;;-3.20;74.50;;;;;;6311060;22;20071;-64
2022/03/08 04:51:50;;;;;;;12.95;8.38;;;-3.30;74.80;;;;;;6310987;22;20004;-63
2022/03/08 04:54:16;;;;;;;11.77;7.88;;;-3.10;75.10;;;;;;6307387;22;20007;-63
2022/03/08 04:56:42;;;;;;;17.20;8.98;;;-3.10;75.00;;;;;;6311446;22;20007;-63
2022/03/08 04:59:10;;;;;;;16.10;8.43;;;-3.20;74.90;;;;;;6310177;22;20323;-64
2022/03/08 05:01:35;;;;;;;13.75;8.90;;;-3.20;75.50;;;;;;6310805;22;20010;-64
2022/03/08 05:04:01;;;;;;;15.65;9.32;;;-3.30;75.90;;;;;;6311012;22;20260;-63
2022/03/08 05:06:30;;;;;;;15.88;8.68;;;-3.30;76.30;;;;;;6310902;22;20082;-63
2022/03/08 05:08:56;;;;;;;14.80;9.23;;;-3.20;76.40;;;;;;6307664;22;20059;-63
2022/03/08 05:11:21;;;;;;;14.35;9.05;;;-3.10;76.40;;;;;;6311134;22;20268;-64
2022/03/08 05:13:47;;;;;;;14.50;9.13;;;-3.10;76.40;;;;;;6308392;22;20007;-63
2022/03/08 05:16:13;;;;;;;15.32;9.80;;;-3.10;76.30;;;;;;6310516;22;20068;-63
2022/03/08 05:18:38;;;;;;;13.82;9.65;;;-3.00;77.10;;;;;;6308021;22;20035;-64
2022/03/08 05:21:04;;;;;;;14.50;9.68;;;-2.80;76.70;;;;;;6310235;22;20234;-64
2022/03/08 05:23:29;;;;;;;14.07;9.82;;;-2.90;76.60;;;;;;6309124;22;19995;-64
2022/03/08 05:25:55;;;;;;;17.35;10.30;;;-2.90;76.80;;;;;;6310518;22;20051;-65
2022/03/08 05:28:21;;;;;;;15.88;10.63;;;-3.00;77.00;;;;;;6310441;22;20010;-64
2022/03/08 05:30:46;;;;;;;16.33;10.48;;;-3.10;77.70;;;;;;6310980;22;20003;-65
2022/03/08 05:33:12;;;;;;;14.15;9.65;;;-3.10;78.20;;;;;;6311251;22;20011;-63
2022/03/08 05:35:38;;;;;;;18.27;10.88;;;-3.10;78.10;;;;;;6311106;22;19999;-64
2022/03/08 05:38:04;;;;;;;19.65;11.25;;;-3.10;78.60;;;;;;6309209;22;20408;-63
2022/03/08 05:40:30;;;;;;;16.90;9.75;;;-3.10;79.00;;;;;;6309052;22;20023;-64
2022/03/08 05:42:58;;;;;;;17.63;11.50;;;-3.10;79.40;;;;;;6311136;22;19995;-65
2022/03/08 05:45:24;;;;;;;16.00;10.68;;;-3.00;80.00;;;;;;6308486;22;19996;-64
2022/03/08 05:47:49;;;;;;;17.00;11.00;;;-2.90;80.10;;;;;;6310164;22;20010;-64
2022/03/08 05:50:24;;;;;;;19.20;11.70;;;-2.90;80.10;;;;;;6310811;22;20261;-64
2022/03/08 05:52:50;;;;;;;20.05;10.80;;;-2.90;80.30;;;;;;6310724;22;20000;-62
2022/03/08 05:55:16;;;;;;;16.02;10.80;;;-2.80;80.30;;;;;;6308414;22;20007;-62
2022/03/08 05:57:42;;;;;;;16.30;10.57;;;-2.80;80.30;;;;;;6310550;22;19999;-63
2022/03/08 06:00:09;;;;;;;16.40;10.73;;;-2.80;80.30;;;;;;6310452;22;20010;-64
2022/03/08 06:02:35;;;;;;;15.95;10.23;;;-2.80;80.60;;;;;;6310508;22;20001;-64
2022/03/08 06:05:01;;;;;;;16.88;10.90;;;-2.70;80.70;;;;;;6310286;22;20003;-63
2022/03/08 06:07:27;;;;;;;18.15;11.07;;;-2.70;80.60;;;;;;6306221;22;20026;-65
2022/03/08 06:09:52;;;;;;;21.67;12.52;;;-2.80;80.90;;;;;;6309193;22;19995;-64
2022/03/08 06:12:18;;;;;;;17.52;11.40;;;-2.70;81.00;;;;;;6310293;22;20060;-65
2022/03/08 06:14:44;;;;;;;20.00;11.75;;;-2.70;81.10;;;;;;6310749;22;20078;-64
2022/03/08 06:17:09;;;;;;;18.92;11.60;;;-2.70;81.40;;;;;;6309608;22;20065;-64
2022/03/08 06:19:36;;;;;;;19.35;11.43;;;-2.70;81.40;;;;;;6309371;22;20003;-65
2022/03/08 06:22:02;;;;;;;19.65;11.02;;;-2.60;81.10;;;;;;6309898;22;20133;-65
2022/03/08 06:24:30;;;;;;;18.55;12.68;;;-2.60;81.10;;;;;;6309087;22;20360;-63
2022/03/08 06:26:57;;;;;;;22.48;12.48;;;-2.60;81.10;;;;;;6309660;22;20383;-65
2022/03/08 06:29:26;;;;;;;19.85;12.57;;;-2.50;81.20;;;;;;6309024;22;20003;-65
2022/03/08 06:31:51;;;;;;;19.55;12.27;;;-2.50;81.20;;;;;;6309826;22;20026;-63
2022/03/08 06:34:17;;;;;;;19.52;11.57;;;-2.40;81.10;;;;;;6311181;22;20022;-65
2022/03/08 06:36:43;;;;;;;20.48;11.23;;;-2.40;81.00;;;;;;6310956;22;20003;-65
2022/03/08 06:39:08;;;;;;;17.33;11.57;;;-2.40;81.00;;;;;;6309367;22;20070;-64
2022/03/08 06:41:34;;;;;;;18.60;11.27;;;-2.40;81.10;;;;;;6310327;22;20003;-63
2022/03/08 06:44:01;;;;;;;20.25;12.05;;;-2.20;81.00;;;;;;6310858;22;19999;-65
2022/03/08 06:46:26;;;;;;;18.83;12.13;;;-2.10;80.70;;;;;;6310996;22;19999;-65
2022/03/08 06:48:52;;;;;;;20.42;11.93;;;-2.10;80.60;;;;;;6310001;22;20003;-65
2022/03/08 06:51:17;;;;;;;22.00;12.00;;;-2.00;80.40;;;;;;6310354;22;20003;-65
2022/03/08 06:53:43;;;;;;;16.83;10.98;;;-1.90;80.30;;;;;;6308084;22;20003;-64
2022/03/08 06:56:12;;;;;;;21.52;12.43;;;-1.90;80.10;;;;;;6309678;22;20007;-65
2022/03/08 06:58:37;;;;;;;18.55;11.85;;;-1.80;80.00;;;;;;6310839;22;20007;-64
2022/03/08 07:01:03;;;;;;;18.13;11.60;;;-1.70;80.00;;;;;;6310901;22;20375;-63
2022/03/08 07:03:29;;;;;;;20.08;11.95;;;-1.60;80.00;;;;;;6310989;22;20067;-64
2022/03/08 07:05:58;;;;;;;21.25;13.38;;;-1.60;79.80;;;;;;6310240;22;20017;-63
2022/03/08 07:08:24;;;;;;;20.90;12.38;;;-1.50;79.70;;;;;;6309170;22;20006;-63
2022/03/08 07:10:50;;;;;;;18.15;11.80;;;-1.50;79.70;;;;;;6310426;22;20361;-63
2022/03/08 07:13:18;;;;;;;18.98;11.82;;;-1.40;79.50;;;;;;6310191;22;20049;-63
2022/03/08 07:15:43;;;;;;;18.02;11.93;;;-1.30;79.50;;;;;;6310057;22;20041;-65
2022/03/08 07:18:09;;;;;;;20.25;13.35;;;-1.30;79.40;;;;;;6310769;22;20000;-66
2022/03/08 07:20:35;;;;;;;20.75;14.43;;;-1.20;79.30;;;;;;6310539;22;19995;-65
2022/03/08 07:23:01;;;;;;;19.73;13.65;;;-1.10;79.20;;;;;;6310032;22;20033;-65
2022/03/08 07:25:29;;;;;;;18.83;12.75;;;-1.00;79.00;;;;;;6309133;22;19999;-65
2022/03/08 07:27:55;;;;;;;18.13;12.00;;;-1.00;78.90;;;;;;6310950;22;20031;-65
2022/03/08 07:30:21;;;;;;;17.15;11.73;;;-0.90;78.80;;;;;;6310638;22;20008;-65
2022/03/08 07:32:46;;;;;;;17.55;12.20;;;-0.80;78.60;;;;;;6311053;22;20268;-65
2022/03/08 07:35:12;;;;;;;18.90;12.70;;;-0.70;78.40;;;;;;6313181;22;20014;-65
2022/03/08 07:37:38;;;;;;;17.02;11.70;;;-0.60;78.20;;;;;;6312800;22;20007;-65
2022/03/08 07:40:06;;;;;;;16.55;11.23;;;-0.50;78.10;;;;;;6311493;22;20026;-66
2022/03/08 07:42:32;;;;;;;20.10;12.40;;;-0.40;77.90;;;;;;6312458;22;20365;-66
2022/03/08 07:44:58;;;;;;;19.75;12.05;;;-0.30;77.30;;;;;;6312723;22;20002;-65
2022/03/08 07:47:24;;;;;;;20.70;12.23;;;-0.30;77.00;;;;;;6312863;22;20067;-65
2022/03/08 07:49:51;;;;;;;18.50;11.75;;;-0.20;77.00;;;;;;6312690;22;20015;-64
2022/03/08 07:52:17;;;;;;;16.02;11.15;;;-0.20;76.80;;;;;;6312518;22;20023;-65
2022/03/08 07:54:43;;;;;;;17.92;11.65;;;-0.10;76.70;;;;;;6311184;22;20064;-65
2022/03/08 07:57:09;;;;;;;28.02;11.50;;;0.00;76.20;;;;;;6312730;22;20007;-65
2022/03/08 07:59:34;;;;;;;17.08;11.75;;;0.00;76.00;;;;;;6312389;22;20014;-64
2022/03/08 08:02:00;;;;;;;18.30;11.63;;;0.10;75.80;;;;;;6312351;22;20430;-64
2022/03/08 08:04:26;;;;;;;18.35;11.45;;;0.30;75.60;;;;;;6312912;22;20006;-63
2022/03/08 08:06:51;;;;;;;15.00;10.38;;;0.40;74.70;;;;;;6311260;22;20022;-66
2022/03/08 08:09:17;;;;;;;18.15;11.27;;;0.50;74.00;;;;;;6311057;22;20415;-65
2022/03/08 08:11:43;;;;;;;18.35;11.85;;;0.60;74.00;;;;;;6312685;22;20030;-65
2022/03/08 08:14:08;;;;;;;16.90;11.32;;;0.60;73.70;;;;;;6312177;22;20018;-63
2022/03/08 08:16:34;;;;;;;17.30;11.65;;;0.80;73.70;;;;;;6312415;22;20003;-65
2022/03/08 08:19:00;;;;;;;15.43;10.48;;;0.90;73.30;;;;;;6312814;22;20003;-65
2022/03/08 08:21:26;;;;;;;17.60;11.38;;;1.10;72.30;;;;;;6312548;22;19999;-65
2022/03/08 08:23:52;;;;;;;20.40;12.43;;;1.30;72.10;;;;;;6311224;22;19995;-66
2022/03/08 08:26:17;;;;;;;16.50;9.88;;;1.90;71.00;;;;;;6312364;22;20000;-65
2022/03/08 08:28:43;;;;;;;13.50;9.95;;;2.90;68.50;;;;;;6312623;22;20058;-66
2022/03/08 08:31:09;;;;;;;18.77;11.00;;;3.70;66.20;;;;;;6312088;22;20372;-65
2022/03/08 08:33:38;;;;;;;12.57;9.18;;;4.40;63.60;;;;;;6312652;22;20031;-63
2022/03/08 08:36:04;;;;;;;13.18;8.85;;;4.70;62.00;;;;;;6312076;22;20006;-66
2022/03/08 08:38:29;;;;;;;12.35;8.65;;;4.40;62.40;;;;;;6311127;22;20669;-64
2022/03/08 08:40:55;;;;;;;13.38;8.38;;;5.10;62.30;;;;;;6312312;22;20043;-65
2022/03/08 08:43:21;;;;;;;13.40;8.88;;;5.90;60.70;;;;;;6312008;22;19999;-65
2022/03/08 08:45:52;;;;;;;12.30;8.07;;;6.50;58.30;;;;;;6312421;22;20003;-66
2022/03/08 08:48:19;;;;;;;11.73;8.15;;;6.30;57.10;;;;;;6312219;22;20351;-64
2022/03/08 08:50:45;;;;;;;10.95;8.00;;;6.30;57.50;;;;;;6312108;22;19995;-65
2022/03/08 08:53:11;;;;;;;11.68;7.70;;;6.50;57.00;;;;;;6310963;22;20360;-65
2022/03/08 08:55:37;;;;;;;10.13;7.38;;;6.60;57.10;;;;;;6312445;22;19999;-66
2022/03/08 08:58:09;;;;;;;13.40;8.82;;;6.70;56.90;;;;;;6311679;22;20048;-66
2022/03/08 09:00:35;;;;;;;11.77;7.85;;;7.20;56.00;;;;;;6312263;22;20067;-64
2022/03/08 09:03:01;;;;;;;10.98;7.82;;;8.10;55.30;;;;;;6312177;22;20033;-65
2022/03/08 09:05:27;;;;;;;11.70;7.68;;;7.50;54.40;;;;;;6311782;22;20015;-65
2022/03/08 09:07:53;;;;;;;10.60;7.47;;;7.10;55.10;;;;;;6312197;22;20070;-64
2022/03/08 09:10:22;;;;;;;11.57;7.45;;;7.40;55.70;;;;;;6310764;22;20392;-65
2022/03/08 09:12:51;;;;;;;12.50;8.23;;;7.40;55.20;;;;;;6311206;22;20285;-65
2022/03/08 09:15:20;;;;;;;12.73;7.97;;;7.70;54.50;;;;;;6311994;22;20395;-65
2022/03/08 09:17:45;;;;;;;12.82;8.52;;;8.20;53.80;;;;;;6312028;22;20075;-64
2022/03/08 09:20:12;;;;;;;13.80;7.82;;;7.70;53.70;;;;;;6311396;22;20128;-66
2022/03/08 09:22:39;;;;;;;11.25;7.78;;;7.10;54.30;;;;;;6311911;22;20082;-65
2022/03/08 09:25:06;;;;;;;35.05;17.85;;;6.60;55.50;;;;;;6310250;22;19995;-63
2022/03/08 09:27:34;;;;;;;79.10;34.38;;;6.90;55.20;;;;;;6311897;22;20022;-65
2022/03/08 09:30:04;;;;;;;13.07;8.15;;;7.00;54.80;;;;;;6311645;22;20011;-64
2022/03/08 09:32:29;;;;;;;27.13;15.88;;;7.10;54.00;;;;;;6312306;22;20032;-65
2022/03/08 09:34:55;;;;;;;11.18;7.60;;;7.20;53.90;;;;;;6311614;22;20376;-64
2022/03/08 09:37:23;;;;;;;11.00;7.60;;;6.90;53.40;;;;;;6311314;22;20375;-64
2022/03/08 09:39:49;;;;;;;12.25;7.20;;;6.60;54.40;;;;;;6310330;22;20009;-64
2022/03/08 09:42:17;;;;;;;11.25;7.03;;;6.50;54.40;;;;;;6311704;22;19999;-63
2022/03/08 09:44:43;;;;;;;10.18;7.18;;;6.50;54.40;;;;;;6311775;22;20005;-65
2022/03/08 09:47:09;;;;;;;13.20;7.93;;;6.50;54.30;;;;;;6311191;22;20002;-65
2022/03/08 09:49:34;;;;;;;11.63;7.85;;;6.50;54.30;;;;;;6311605;22;20273;-65
2022/03/08 09:52:00;;;;;;;11.23;7.40;;;6.80;54.50;;;;;;6311412;22;20003;-65
2022/03/08 09:54:26;;;;;;;13.02;8.13;;;6.90;54.20;;;;;;6310172;22;20007;-64
2022/03/08 09:56:51;;;;;;;11.80;8.10;;;6.90;53.80;;;;;;6311367;22;20004;-64
2022/03/08 09:59:18;;;;;;;12.27;7.50;;;7.00;53.50;;;;;;6310979;22;20375;-62
2022/03/08 10:01:47;;;;;;;10.80;7.68;;;6.50;53.20;;;;;;6311101;22;20003;-63
2022/03/08 10:04:22;;;;;;;12.48;7.93;;;6.70;53.70;;;;;;6311475;22;20458;-62
2022/03/08 10:06:51;;;;;;;13.98;8.40;;;6.60;53.40;;;;;;6311068;22;20441;-63
2022/03/08 10:09:20;;;;;;;14.40;8.98;;;6.50;54.60;;;;;;6309678;22;19999;-65
2022/03/08 10:11:55;;;;;;;14.27;9.02;;;6.40;54.90;;;;;;6310938;22;20002;-65
2022/03/08 10:14:38;;;;;;;;;;;6.60;55.30;;;;;;6311061;22;20007;-65
2022/03/08 10:17:30;;;;;;;15.20;8.70;;;6.80;54.80;;;;;;6310237;22;19906;-64
2022/03/08 10:19:56;;;;;;;14.02;8.60;;;7.10;55.40;;;;;;6311444;22;20007;-65
2022/03/08 10:22:32;;;;;;;13.75;9.02;;;7.90;53.90;;;;;;6309585;22;20268;-65
2022/03/08 10:25:24;;;;;;;15.02;8.80;;;8.10;54.60;;;;;;6308724;22;20010;-65
2022/03/08 10:27:56;;;;;;;13.88;9.02;;;8.40;53.00;;;;;;6309507;22;20285;-66
2022/03/08 10:30:43;;;;;;;11.95;8.52;;;8.10;53.90;;;;;;6309423;22;20034;-66
2022/03/08 10:33:09;;;;;;;13.88;9.30;;;8.50;53.20;;;;;;6309773;22;20003;-65
2022/03/08 10:35:42;;;;;;;14.65;9.80;;;8.90;52.60;;;;;;6309925;22;20000;-66
2022/03/08 10:38:13;;;;;;;13.75;9.73;;;8.70;52.40;;;;;;6309400;22;19999;-65
2022/03/08 10:40:42;;;;;;;14.60;9.35;;;9.00;53.40;;;;;;6311020;22;19999;-66
2022/03/08 10:43:12;;;;;;;14.32;9.30;;;9.60;52.60;;;;;;6311543;22;20303;-67
2022/03/08 10:45:45;;;;;;;14.00;9.88;;;9.90;51.20;;;;;;6311145;22;20034;-66
2022/03/08 10:48:14;;;;;;;13.52;9.32;;;9.70;51.40;;;;;;6311118;22;19999;-65
2022/03/08 10:50:43;;;;;;;16.35;9.57;;;9.60;51.50;;;;;;6311362;22;20003;-66
2022/03/08 10:53:11;;;;;;;12.18;8.93;;;9.60;51.70;;;;;;6309038;22;20003;-66
2022/03/08 10:55:48;;;;;;;14.27;9.82;;;10.10;52.40;;;;;;6311223;22;20023;-67
2022/03/08 10:58:15;;;;;;;14.32;9.60;;;11.10;50.40;;;;;;6310780;22;19995;-67
2022/03/08 11:00:54;;;;;;;14.85;9.90;;;10.40;49.80;;;;;;6311414;22;20029;-65
2022/03/08 11:03:28;;;;;;;14.13;9.90;;;10.20;50.10;;;;;;6311237;22;20002;-67
2022/03/08 11:05:56;;;;;;;16.38;9.55;;;9.90;50.50;;;;;;6310134;22;20014;-67
2022/03/08 11:08:28;;;;;;;14.38;9.90;;;10.20;50.90;;;;;;6307902;22;20007;-66
2022/03/08 11:10:55;;;;;;;12.48;9.73;;;10.40;50.40;;;;;;6310127;22;20096;-65
2022/03/08 11:13:31;;;;;;;35.67;24.52;;;10.00;49.90;;;;;;6310594;22;19999;-65
2022/03/08 11:15:57;;;;;;;13.85;10.27;;;10.30;50.10;;;;;;6310841;22;19999;-66
2022/03/08 11:18:24;;;;;;;12.73;9.32;;;10.40;49.20;;;;;;6310660;22;19999;-66
2022/03/08 11:20:53;;;;;;;12.05;8.38;;;10.90;49.60;;;;;;6310706;22;20003;-66
2022/03/08 11:23:19;;;;;;;12.05;8.02;;;10.90;48.20;;;;;;6307619;22;20000;-65
2022/03/08 11:25:46;;;;;;;10.95;7.93;;;10.60;49.00;;;;;;6310649;22;20034;-66
2022/03/08 11:28:13;;;;;;;14.25;8.85;;;11.10;48.30;;;;;;6310181;22;20045;-66
2022/03/08 11:30:55;;;;;;;11.70;8.57;;;10.70;48.40;;;;;;6309459;22;20026;-66
2022/03/08 11:33:48;;;;;;;11.85;7.43;;;10.70;49.00;;;;;;6307992;22;20010;-66
2022/03/08 11:36:31;;;;;;;13.13;8.00;;;10.80;48.70;;;;;;6309079;22;20062;-66
2022/03/08 11:39:19;;;;;;;12.30;7.90;;;10.90;47.40;;;;;;6307138;22;20009;-66
2022/03/08 11:42:18;;;;;;;13.70;7.63;;;10.70;49.00;;;;;;6310643;22;20003;-64
2022/03/08 11:45:02;;;;;;;11.70;7.10;;;10.80;47.50;;;;;;6289558;22;20102;-66
2022/03/08 11:47:43;;;;;;;9.65;6.88;;;10.60;47.90;;;;;;6311089;22;20044;-66
2022/03/08 11:50:20;;;;;;;12.25;8.07;;;10.20;47.10;;;;;;6310255;22;20035;-66
2022/03/08 11:52:51;;;;;;;12.38;7.43;;;9.80;49.00;;;;;;6309923;22;20272;-64
2022/03/08 11:55:25;;;;;;;12.23;7.38;;;9.70;48.30;;;;;;6309146;22;20007;-65
2022/03/08 11:57:56;;;;;;;13.80;7.90;;;9.70;48.90;;;;;;6310582;22;20058;-66
2022/03/08 12:00:25;;;;;;;12.32;7.82;;;8.90;49.30;;;;;;6309609;22;20084;-64
2022/03/08 12:02:54;;;;;;;12.15;7.43;;;8.60;50.30;;;;;;6309878;22;20364;-64
2022/03/08 12:06:04;;;;;;;10.70;7.43;;;9.20;50.40;;;;;;6310362;22;20054;-66
2022/03/08 12:08:30;;;;;;;11.07;7.50;;;9.70;49.60;;;;;;6302865;22;20478;-65
2022/03/08 12:11:16;;;;;;;12.63;6.70;;;10.10;49.30;;;;;;6310526;22;20005;-63
2022/03/08 12:13:46;;;;;;;9.95;6.50;;;10.10;48.60;;;;;;6310370;22;20057;-65
2022/03/08 12:16:23;;;;;;;10.85;6.80;;;9.50;47.80;;;;;;6310375;22;19995;-65
2022/03/08 12:18:48;;;;;;;11.00;7.22;;;9.90;49.10;;;;;;6311151;22;20360;-66
2022/03/08 12:23:56;;;;;;;12.82;7.25;;;10.10;48.60;;;;;;6310916;22;20114;-64
2022/03/08 12:26:39;;;;;;;10.40;7.18;;;10.10;48.30;;;;;;6312552;22;20070;-64
2022/03/08 12:29:22;;;;;;;12.35;7.88;;;10.20;47.80;;;;;;6312352;22;20011;-64
2022/03/08 12:32:05;;;;;;;9.77;6.80;;;10.10;46.50;;;;;;6311882;22;20373;-64
2022/03/08 12:34:39;;;;;;;11.77;8.20;;;9.90;46.90;;;;;;6312023;22;20003;-65
2022/03/08 12:37:09;;;;;;;16.92;8.40;;;9.80;46.60;;;;;;6312131;22;20400;-66
2022/03/08 12:39:55;;;;;;;10.82;7.50;;;10.10;46.90;;;;;;6309878;22;20030;-65
2022/03/08 12:42:35;;;;;;;11.07;7.65;;;9.90;47.20;;;;;;6312122;22;20318;-63